Time;durP1;ratioP1;P1;durP2;ratioP2;P2;SDS_P1;SDS_P2;PMS_P1;PMS_P2;Temp;Humidity;BMP_temperature;BMP_pressure;BME280_temperature;BME280_humidity;BME280_pressure;Samples;Min_cycle;Max_cycle;Signal;HPM_P1;HPM_P2
2021/08/24 06:28:21;;;;;;;4.10;2.33;;;15.80;99.90;;;;;;5921321;22;20995;-46
2021/08/24 06:30:50;;;;;;;3.33;1.80;;;16.00;99.90;;;;;;5036936;28;20440;-48
2021/08/24 06:33:19;;;;;;;4.47;2.30;;;16.00;99.90;;;;;;5040400;28;20789;-44
2021/08/24 06:35:46;;;;;;;4.23;2.10;;;16.10;99.90;;;;;;5037227;28;20523;-48
2021/08/24 06:38:13;;;;;;;3.30;2.20;;;16.10;99.90;;;;;;5050651;28;20498;-44
2021/08/24 06:40:40;;;;;;;5.33;1.53;;;16.20;99.90;;;;;;5051488;28;20510;-45
2021/08/24 06:43:07;;;;;;;4.03;2.00;;;16.30;99.90;;;;;;5053656;28;20525;-43
2021/08/24 06:45:35;;;;;;;3.97;2.13;;;16.40;99.90;;;;;;5043493;28;20441;-41
2021/08/24 06:48:02;;;;;;;4.20;2.40;;;16.50;99.90;;;;;;5044787;28;20893;-43
2021/08/24 06:50:31;;;;;;;5.73;2.43;;;16.60;99.90;;;;;;5040088;28;20444;-49
2021/08/24 06:52:58;;;;;;;2.77;2.10;;;16.60;99.90;;;;;;5049360;28;20493;-48
2021/08/24 06:55:25;;;;;;;5.60;2.97;;;16.70;99.90;;;;;;5047569;28;20441;-45
2021/08/24 06:57:54;;;;;;;5.93;2.10;;;16.80;99.90;;;;;;5045723;28;20908;-44
2021/08/24 07:00:23;;;;;;;4.00;2.40;;;16.80;99.90;;;;;;5045310;28;20479;-43
2021/08/24 07:02:53;;;;;;;3.20;2.27;;;16.90;99.90;;;;;;5046369;28;20451;-44
2021/08/24 07:05:22;;;;;;;6.50;2.00;;;17.00;99.90;;;;;;5047843;28;20444;-46
2021/08/24 07:07:48;;;;;;;4.23;2.10;;;17.00;99.90;;;;;;5042491;28;20928;-45
2021/08/24 07:10:17;;;;;;;4.80;2.00;;;17.10;99.90;;;;;;5040349;28;20483;-48
2021/08/24 07:12:44;;;;;;;4.23;2.33;;;17.20;99.90;;;;;;5033967;28;20440;-41
2021/08/24 07:15:14;;;;;;;6.00;2.10;;;17.20;99.90;;;;;;5035456;28;20494;-41
2021/08/24 07:17:41;;;;;;;3.30;2.20;;;17.40;99.90;;;;;;5036265;28;20452;-44
2021/08/24 07:20:12;;;;;;;2.50;1.80;;;17.40;99.90;;;;;;5035281;28;20495;-44
2021/08/24 07:22:39;;;;;;;3.07;1.70;;;17.50;99.90;;;;;;5035618;28;20452;-49
2021/08/24 07:25:08;;;;;;;3.63;1.80;;;17.60;99.90;;;;;;5035967;28;20457;-46
2021/08/24 07:27:35;;;;;;;3.07;2.03;;;17.60;99.90;;;;;;5036107;28;20448;-45
2021/08/24 07:30:01;;;;;;;1.97;1.60;;;17.70;99.90;;;;;;5035997;28;20482;-46
2021/08/24 07:32:28;;;;;;;3.77;2.33;;;17.80;99.90;;;;;;5039570;28;20478;-46
2021/08/24 07:34:55;;;;;;;5.67;2.10;;;17.80;99.90;;;;;;5039521;28;20842;-43
2021/08/24 07:37:23;;;;;;;3.70;1.93;;;17.90;99.90;;;;;;5040145;28;20892;-46
2021/08/24 07:39:50;;;;;;;4.03;2.10;;;18.00;99.90;;;;;;5039456;28;20475;-42
2021/08/24 07:42:16;;;;;;;10.40;5.83;;;18.10;99.90;;;;;;5039717;28;21129;-47
2021/08/24 07:44:43;;;;;;;4.80;2.47;;;18.20;99.90;;;;;;5039523;28;20448;-45
2021/08/24 07:47:10;;;;;;;3.67;2.50;;;18.20;99.90;;;;;;5039578;28;20705;-47
2021/08/24 07:49:38;;;;;;;10.70;3.23;;;18.30;99.90;;;;;;5039973;28;20777;-49
2021/08/24 07:52:06;;;;;;;2.77;2.03;;;18.40;99.90;;;;;;5038930;28;20784;-44
2021/08/24 07:54:35;;;;;;;4.00;2.23;;;18.50;99.90;;;;;;5039338;28;20456;-43
2021/08/24 07:57:02;;;;;;;4.10;3.00;;;18.80;99.90;;;;;;5039404;28;20448;-47
2021/08/24 07:59:29;;;;;;;2.60;2.40;;;18.90;99.90;;;;;;5039097;28;20475;-43
2021/08/24 08:01:56;;;;;;;1.73;1.43;;;19.40;99.90;;;;;;5039167;28;20448;-47
2021/08/24 08:04:24;;;;;;;2.40;1.90;;;20.70;99.90;;;;;;5038089;28;20444;-44
2021/08/24 08:06:51;;;;;;;9.50;4.00;;;22.40;99.90;;;;;;5037967;28;20502;-44
2021/08/24 08:09:20;;;;;;;2.77;1.87;;;24.00;99.90;;;;;;5037369;28;20513;-45
2021/08/24 08:11:49;;;;;;;2.40;2.03;;;25.20;99.90;;;;;;5037303;28;20452;-47
2021/08/24 08:14:16;;;;;;;2.93;1.93;;;26.60;95.50;;;;;;5037355;28;20526;-47
2021/08/24 08:16:43;;;;;;;2.57;1.93;;;27.20;91.90;;;;;;5037127;28;21016;-43
2021/08/24 08:19:10;;;;;;;2.97;2.33;;;28.10;86.60;;;;;;5036979;28;20444;-45
2021/08/24 08:21:39;;;;;;;4.40;2.00;;;28.80;79.50;;;;;;5036760;28;20763;-43
2021/08/24 08:24:07;;;;;;;3.67;1.97;;;29.40;75.90;;;;;;5036775;28;20912;-47
2021/08/24 08:26:35;;;;;;;3.70;2.50;;;30.10;69.60;;;;;;5036540;28;20475;-44
2021/08/24 08:29:06;;;;;;;4.77;2.20;;;30.50;64.70;;;;;;5036274;28;20988;-46
2021/08/24 08:31:33;;;;;;;4.27;2.00;;;30.80;62.30;;;;;;5036431;28;20786;-43
2021/08/24 08:34:01;;;;;;;3.93;2.50;;;31.70;59.10;;;;;;5036644;28;20466;-46
2021/08/24 08:36:27;;;;;;;3.57;1.87;;;32.30;57.10;;;;;;5036678;28;20444;-45
2021/08/24 08:38:56;;;;;;;3.93;2.40;;;33.00;55.00;;;;;;5036514;28;20497;-44
2021/08/24 08:41:31;;;;;;;3.50;2.13;;;33.20;53.20;;;;;;5035966;28;20550;-48
2021/08/24 08:44:01;;;;;;;5.27;2.20;;;33.30;51.80;;;;;;5036562;28;20928;-44
2021/08/24 08:46:44;;;;;;;2.60;2.23;;;32.70;51.20;;;;;;5036495;28;20758;-49
2021/08/24 08:49:26;;;;;;;2.60;2.40;;;32.50;51.20;;;;;;5036264;28;20894;-45
2021/08/24 08:52:02;;;;;;;3.37;2.30;;;32.90;51.00;;;;;;5036370;28;20486;-43
2021/08/24 08:54:41;;;;;;;2.90;2.30;;;33.10;50.20;;;;;;5036579;28;20448;-44
2021/08/24 08:57:14;;;;;;;3.20;2.13;;;33.10;49.50;;;;;;5036313;28;20471;-50
2021/08/24 08:59:48;;;;;;;5.10;2.53;;;33.30;48.90;;;;;;5036032;28;21004;-45
2021/08/24 09:02:29;;;;;;;5.40;2.50;;;33.40;48.50;;;;;;5036292;28;20444;-48
2021/08/24 09:04:58;;;;;;;2.30;1.97;;;33.70;47.90;;;;;;5035989;28;20425;-43
2021/08/24 09:07:30;;;;;;;3.83;2.87;;;33.70;47.90;;;;;;5035769;28;20456;-48
2021/08/24 09:09:57;;;;;;;2.53;1.90;;;33.90;47.30;;;;;;5036002;28;20514;-47
2021/08/24 09:12:26;;;;;;;4.67;2.03;;;34.00;46.50;;;;;;5035643;28;20446;-46
2021/08/24 09:14:55;;;;;;;3.27;2.23;;;33.90;46.60;;;;;;5035939;28;20538;-45
2021/08/24 09:17:29;;;;;;;4.67;2.00;;;33.60;46.50;;;;;;5036165;28;20460;-48
2021/08/24 09:20:00;;;;;;;3.20;1.70;;;32.90;46.60;;;;;;5035584;28;20487;-48
2021/08/24 09:22:27;;;;;;;4.57;2.10;;;32.30;47.70;;;;;;5035872;28;20463;-45
2021/08/24 09:24:53;;;;;;;2.67;1.80;;;31.90;48.10;;;;;;5035898;28;20756;-46
2021/08/24 09:27:28;;;;;;;3.50;2.70;;;31.40;49.20;;;;;;5035489;28;20452;-46
2021/08/24 09:29:57;;;;;;;4.03;2.30;;;31.40;49.50;;;;;;5034922;28;20548;-43
2021/08/24 09:32:28;;;;;;;3.17;2.30;;;31.80;49.10;;;;;;5035332;28;20804;-48
2021/08/24 09:35:20;;;;;;;4.83;2.70;;;31.70;48.50;;;;;;5035469;28;20740;-42
2021/08/24 09:37:47;;;;;;;2.83;1.90;;;31.60;49.00;;;;;;5035691;28;20519;-49
2021/08/24 09:40:14;;;;;;;3.07;2.20;;;31.80;48.80;;;;;;5035072;28;20614;-46
2021/08/24 09:42:43;;;;;;;3.23;2.47;;;32.30;49.30;;;;;;5035365;28;20779;-49
2021/08/24 09:45:26;;;;;;;2.40;2.20;;;32.60;48.00;;;;;;5035350;28;20452;-48
2021/08/24 09:48:06;;;;;;;3.13;2.63;;;32.90;47.10;;;;;;5035275;28;20440;-48
2021/08/24 09:50:37;;;;;;;5.40;2.80;;;33.20;45.90;;;;;;5035028;28;20429;-45
2021/08/24 09:53:05;;;;;;;2.73;2.40;;;33.50;46.70;;;;;;5034466;28;20448;-45
2021/08/24 09:55:39;;;;;;;2.87;2.07;;;33.40;45.40;;;;;;5035268;28;20491;-45
2021/08/24 09:58:08;;;;;;;4.20;2.07;;;33.00;46.00;;;;;;5035168;28;20506;-49
2021/08/24 10:00:40;;;;;;;2.60;2.00;;;32.80;46.30;;;;;;5034848;28;20499;-45
2021/08/24 10:03:26;;;;;;;5.70;2.50;;;32.90;46.50;;;;;;5034954;28;20546;-49
2021/08/24 10:06:02;;;;;;;2.90;2.10;;;33.00;46.50;;;;;;5034815;28;20501;-49
2021/08/24 10:08:32;;;;;;;7.90;2.00;;;33.10;44.90;;;;;;5034997;28;20566;-49
2021/08/24 10:11:05;;;;;;;2.97;2.30;;;33.10;46.20;;;;;;5035250;28;20448;-43
2021/08/24 10:13:34;;;;;;;4.37;2.87;;;32.50;45.30;;;;;;5034692;28;20451;-48
2021/08/24 10:16:07;;;;;;;3.27;2.30;;;31.80;46.30;;;;;;5034879;28;20459;-48
2021/08/24 10:18:36;;;;;;;3.73;1.70;;;30.80;47.90;;;;;;5034527;28;20455;-45
2021/08/24 10:21:06;;;;;;;7.03;4.03;;;30.00;49.40;;;;;;5034437;28;20491;-43
2021/08/24 10:23:37;;;;;;;10.07;7.50;;;29.90;49.10;;;;;;5034456;28;20444;-44
2021/08/24 10:26:07;;;;;;;13.83;8.27;;;29.20;50.00;;;;;;5034479;28;20448;-46
2021/08/24 10:28:39;;;;;;;4.70;3.13;;;28.80;50.90;;;;;;5034241;28;21006;-47
2021/08/24 10:31:22;;;;;;;7.33;2.23;;;28.90;51.80;;;;;;5034318;28;20452;-49
2021/08/24 10:33:55;;;;;;;6.40;2.37;;;29.00;51.50;;;;;;5034502;28;20452;-49
2021/08/24 10:36:28;;;;;;;7.23;2.10;;;29.10;51.10;;;;;;5034510;28;20462;-49
2021/08/24 10:38:57;;;;;;;3.63;2.40;;;29.20;50.80;;;;;;5034321;28;20976;-50
2021/08/24 10:41:31;;;;;;;5.10;2.27;;;29.20;50.60;;;;;;5034140;28;20972;-48
2021/08/24 10:44:00;;;;;;;4.20;2.83;;;29.30;51.50;;;;;;5034565;28;20448;-49
2021/08/24 10:46:28;;;;;;;5.90;3.10;;;29.60;50.80;;;;;;5034395;28;20455;-42
2021/08/24 10:48:57;;;;;;;3.77;2.30;;;29.70;51.60;;;;;;5034478;28;20526;-44
2021/08/24 10:51:35;;;;;;;4.17;2.90;;;29.40;49.50;;;;;;5034044;28;20440;-47
2021/08/24 10:54:12;;;;;;;6.90;2.50;;;28.60;50.70;;;;;;5033930;28;20526;-45
2021/08/24 10:56:43;;;;;;;4.73;3.30;;;27.80;51.90;;;;;;5034408;28;20440;-46
2021/08/24 10:59:25;;;;;;;5.30;3.00;;;26.70;52.90;;;;;;5034235;28;20448;-48
2021/08/24 11:01:57;;;;;;;3.57;2.57;;;25.90;56.20;;;;;;5034404;28;20476;-42
2021/08/24 11:04:52;;;;;;;4.63;2.83;;;25.60;56.20;;;;;;5034874;28;20448;-44
2021/08/24 11:07:32;;;;;;;3.40;2.37;;;25.30;56.50;;;;;;5039016;28;20440;-44
2021/08/24 11:10:10;;;;;;;3.07;2.53;;;24.90;57.40;;;;;;5038805;28;20777;-50
2021/08/24 11:12:52;;;;;;;4.50;2.73;;;25.10;57.00;;;;;;5038473;28;20436;-45
2021/08/24 11:15:34;;;;;;;5.80;2.60;;;25.10;57.10;;;;;;5038327;28;20448;-44
2021/08/24 11:18:10;;;;;;;3.20;2.30;;;25.10;56.60;;;;;;5038400;28;20888;-44
2021/08/24 11:20:44;;;;;;;5.23;3.23;;;25.10;56.60;;;;;;5038190;28;20481;-45
2021/08/24 11:23:23;;;;;;;3.90;3.00;;;25.30;56.60;;;;;;5038108;28;20428;-43
2021/08/24 11:25:55;;;;;;;4.33;2.90;;;25.40;56.60;;;;;;5038392;28;20490;-47
2021/08/24 11:28:36;;;;;;;5.97;4.10;;;25.50;56.60;;;;;;5037782;28;20986;-45
2021/08/24 11:31:09;;;;;;;4.20;2.70;;;25.60;55.00;;;;;;5038475;28;20425;-48
2021/08/24 11:33:40;;;;;;;4.47;2.87;;;25.60;55.00;;;;;;5037910;28;20513;-43
2021/08/24 11:36:16;;;;;;;6.53;3.73;;;25.70;54.20;;;;;;5038106;28;20832;-42
2021/08/24 11:38:48;;;;;;;3.20;2.60;;;25.70;54.50;;;;;;5038134;28;20432;-44
2021/08/24 11:41:19;;;;;;;4.00;2.73;;;25.60;53.50;;;;;;5037823;28;20810;-42
2021/08/24 11:43:50;;;;;;;3.03;2.50;;;25.40;52.90;;;;;;5037577;28;20467;-44
2021/08/24 11:46:28;;;;;;;4.00;2.43;;;25.40;53.50;;;;;;5038066;28;20729;-42
2021/08/24 11:49:06;;;;;;;4.20;2.67;;;25.30;53.80;;;;;;5037440;28;20440;-48
2021/08/24 11:51:37;;;;;;;5.43;3.60;;;25.10;54.20;;;;;;5037597;28;20420;-45
2021/08/24 11:54:12;;;;;;;8.20;2.80;;;25.10;53.90;;;;;;5037215;28;20534;-51
2021/08/24 11:56:47;;;;;;;4.67;2.67;;;25.10;53.90;;;;;;5037482;28;20486;-47
2021/08/24 11:59:18;;;;;;;4.77;3.17;;;24.90;51.70;;;;;;5037426;28;20428;-47
2021/08/24 12:01:48;;;;;;;6.93;3.50;;;24.90;52.20;;;;;;5036985;28;20491;-45
2021/08/24 12:04:19;;;;;;;3.57;2.40;;;24.90;52.90;;;;;;5037332;28;20436;-47
2021/08/24 12:06:52;;;;;;;10.60;4.43;;;24.90;52.10;;;;;;5037005;28;20763;-52
2021/08/24 12:09:37;;;;;;;4.47;2.97;;;24.90;53.40;;;;;;5037241;28;20455;-48
2021/08/24 12:12:05;;;;;;;4.67;2.87;;;24.80;53.20;;;;;;5037095;28;20987;-49
2021/08/24 12:14:34;;;;;;;3.27;2.70;;;24.80;53.70;;;;;;5036946;28;20448;-44
2021/08/24 12:17:04;;;;;;;3.67;2.83;;;24.90;53.40;;;;;;5035985;28;20448;-44
2021/08/24 12:19:33;;;;;;;4.77;3.27;;;24.90;53.40;;;;;;5037179;28;20451;-45
2021/08/24 12:22:23;;;;;;;5.23;3.80;;;24.80;53.80;;;;;;5036576;28;20480;-50
2021/08/24 12:25:02;;;;;;;6.23;4.00;;;24.90;53.90;;;;;;5036969;28;20757;-44
2021/08/24 12:28:09;;;;;;;5.83;4.10;;;25.00;53.70;;;;;;5036550;28;20448;-43
2021/08/24 12:30:53;;;;;;;7.67;3.97;;;25.00;54.40;;;;;;4975718;28;20450;-42
2021/08/24 12:33:38;;;;;;;6.20;4.27;;;24.90;55.30;;;;;;4975129;28;20459;-45
2021/08/24 12:36:51;;;;;;;8.43;4.27;;;24.50;56.10;;;;;;5017215;28;20893;-48
2021/08/24 12:39:42;;;;;;;9.70;6.30;;;24.20;55.50;;;;;;5036583;28;20502;-48
2021/08/24 12:42:25;;;;;;;6.17;4.10;;;24.00;55.70;;;;;;5036635;28;20475;-48
2021/08/24 12:45:30;;;;;;;7.00;3.53;;;23.90;56.60;;;;;;5036760;28;20452;-44
2021/08/24 12:48:13;;;;;;;6.10;4.07;;;23.90;57.20;;;;;;5031392;28;20452;-43
2021/08/24 12:51:08;;;;;;;5.33;3.50;;;24.00;56.70;;;;;;5036409;28;20758;-43
2021/08/24 12:53:45;;;;;;;7.57;3.77;;;24.10;57.00;;;;;;5021153;28;20468;-43
2021/08/24 12:56:40;;;;;;;5.37;3.10;;;24.20;57.50;;;;;;5036223;28;20598;-44
2021/08/24 12:59:07;;;;;;;5.20;3.83;;;24.20;57.20;;;;;;5036454;28;20472;-47
2021/08/24 13:01:38;;;;;;;5.37;3.27;;;23.90;57.10;;;;;;5036164;28;20863;-48
2021/08/24 13:04:21;;;;;;;4.30;3.47;;;23.60;56.80;;;;;;5036138;28;20483;-44
2021/08/24 13:07:09;;;;;;;8.30;4.20;;;23.50;57.30;;;;;;5036229;28;20433;-44
2021/08/24 13:09:42;;;;;;;5.67;4.03;;;23.60;56.50;;;;;;5035930;28;20968;-47
2021/08/24 13:12:32;;;;;;;6.60;4.83;;;23.70;58.00;;;;;;5035881;28;20452;-44
2021/08/24 13:15:01;;;;;;;5.03;3.63;;;23.70;57.00;;;;;;5033575;28;20567;-43
2021/08/24 13:17:36;;;;;;;6.63;4.23;;;23.80;56.70;;;;;;5035613;28;20471;-43
2021/08/24 13:20:04;;;;;;;8.97;4.77;;;23.90;57.60;;;;;;5035628;28;20439;-43
2021/08/24 13:22:39;;;;;;;9.67;6.53;;;23.90;57.10;;;;;;5035920;28;20517;-50
2021/08/24 13:25:12;;;;;;;9.33;6.27;;;23.80;57.20;;;;;;5035690;28;20505;-46
2021/08/24 13:27:47;;;;;;;11.53;5.27;;;23.90;57.70;;;;;;5034969;28;20491;-46
2021/08/24 13:30:19;;;;;;;7.47;4.80;;;24.00;58.40;;;;;;5035125;28;20467;-43
2021/08/24 13:32:50;;;;;;;5.10;3.97;;;24.00;57.30;;;;;;5035615;28;20510;-43
2021/08/24 13:35:20;;;;;;;7.90;4.67;;;23.90;56.60;;;;;;5035550;28;20452;-44
2021/08/24 13:37:49;;;;;;;5.27;4.23;;;23.90;56.80;;;;;;5035535;28;20484;-46
2021/08/24 13:40:29;;;;;;;5.70;3.90;;;23.90;57.60;;;;;;5035273;28;20960;-44
2021/08/24 13:42:59;;;;;;;8.93;4.50;;;24.00;57.80;;;;;;5035140;28;20484;-45
2021/08/24 13:45:28;;;;;;;7.60;4.37;;;24.10;57.60;;;;;;5035335;28;20501;-47
2021/08/24 13:47:59;;;;;;;9.50;4.60;;;24.20;57.30;;;;;;5035396;28;20522;-51
2021/08/24 13:50:29;;;;;;;4.70;3.80;;;24.10;56.20;;;;;;5035038;28;20917;-46
2021/08/24 13:53:02;;;;;;;7.10;4.40;;;24.00;57.20;;;;;;5035180;28;20440;-45
2021/08/24 13:55:32;;;;;;;9.03;4.13;;;24.00;56.50;;;;;;5035126;28;20440;-49
2021/08/24 13:58:18;;;;;;;5.70;3.40;;;24.00;55.30;;;;;;5035058;28;20459;-43
2021/08/24 14:00:56;;;;;;;5.27;4.10;;;24.00;56.70;;;;;;5035270;28;20523;-49
2021/08/24 14:03:23;;;;;;;5.40;4.20;;;24.10;57.50;;;;;;5034732;28;20471;-48
2021/08/24 14:05:55;;;;;;;8.40;4.27;;;24.20;56.40;;;;;;5034958;28;20802;-44
2021/08/24 14:08:21;;;;;;;5.70;3.67;;;24.30;56.80;;;;;;5035249;28;20458;-45
2021/08/24 14:10:55;;;;;;;5.33;4.00;;;24.50;56.50;;;;;;5034801;28;20765;-47
2021/08/24 14:13:22;;;;;;;15.67;7.40;;;24.40;55.60;;;;;;5034888;28;20818;-48
2021/08/24 14:15:51;;;;;;;7.43;3.83;;;24.20;56.20;;;;;;5034518;28;20509;-45
2021/08/24 14:18:21;;;;;;;7.20;3.73;;;24.20;56.90;;;;;;5034742;28;20448;-48
2021/08/24 14:20:52;;;;;;;6.73;3.90;;;24.10;56.80;;;;;;5034798;28;20444;-46
2021/08/24 14:23:22;;;;;;;9.10;4.73;;;24.00;56.50;;;;;;5034557;28;20534;-44
2021/08/24 14:25:51;;;;;;;5.60;3.90;;;23.80;57.50;;;;;;5034936;28;20448;-44
2021/08/24 14:28:24;;;;;;;5.63;3.57;;;23.70;57.80;;;;;;5034170;28;20484;-45
2021/08/24 14:30:52;;;;;;;6.30;3.40;;;23.50;57.80;;;;;;5034609;28;20841;-50
2021/08/24 14:33:22;;;;;;;5.20;3.50;;;23.30;57.60;;;;;;5034397;28;20452;-42
2021/08/24 14:35:57;;;;;;;7.27;3.70;;;23.20;57.40;;;;;;5034411;28;20505;-43
2021/08/24 14:38:33;;;;;;;5.60;4.70;;;23.00;57.80;;;;;;5034453;28;20448;-44
2021/08/24 14:41:22;;;;;;;5.90;4.10;;;23.10;58.70;;;;;;5033855;28;20444;-49
2021/08/24 14:43:54;;;;;;;4.80;3.80;;;23.10;58.70;;;;;;5030436;28;20468;-43
2021/08/24 14:46:24;;;;;;;4.87;3.57;;;23.20;58.80;;;;;;5034317;28;20444;-43
2021/08/24 14:48:54;;;;;;;4.80;3.60;;;23.30;57.90;;;;;;5034631;28;20452;-42
2021/08/24 14:51:21;;;;;;;9.00;5.37;;;23.40;58.10;;;;;;5034157;28;20925;-50
2021/08/24 14:53:56;;;;;;;6.90;3.30;;;23.50;58.30;;;;;;5034447;28;20938;-45
2021/08/24 14:56:30;;;;;;;7.53;3.60;;;23.60;58.60;;;;;;5034294;28;20440;-45
2021/08/24 14:59:14;;;;;;;4.77;4.03;;;23.70;58.30;;;;;;5034620;28;20467;-43
2021/08/24 15:02:03;;;;;;;5.80;3.30;;;23.60;58.60;;;;;;5033827;28;20486;-44
2021/08/24 15:04:31;;;;;;;7.13;4.30;;;23.60;59.70;;;;;;5034859;28;20448;-47
2021/08/24 15:07:05;;;;;;;5.27;3.50;;;23.50;60.20;;;;;;5035940;28;20547;-45
2021/08/24 15:09:47;;;;;;;10.83;4.20;;;23.50;59.70;;;;;;5033972;28;20916;-43
2021/08/24 15:12:21;;;;;;;5.13;3.80;;;23.50;61.20;;;;;;5035139;28;20482;-46
2021/08/24 15:14:50;;;;;;;6.47;3.90;;;23.60;60.20;;;;;;5034496;28;20433;-48
2021/08/24 15:17:30;;;;;;;5.60;3.70;;;23.50;59.80;;;;;;5034489;28;20452;-44
2021/08/24 15:20:01;;;;;;;6.13;3.20;;;23.40;60.10;;;;;;5035391;28;20449;-44
2021/08/24 15:22:31;;;;;;;5.90;3.70;;;23.30;60.70;;;;;;5034620;28;21193;-44
2021/08/24 15:25:00;;;;;;;5.70;4.30;;;23.30;60.70;;;;;;5034402;28;20450;-46
2021/08/24 15:27:30;;;;;;;5.90;3.40;;;23.30;61.30;;;;;;5034886;28;20460;-45
2021/08/24 15:30:05;;;;;;;8.20;3.77;;;23.20;61.80;;;;;;5033549;28;20531;-45
2021/08/24 15:32:35;;;;;;;5.40;4.10;;;23.20;61.60;;;;;;5035466;28;20467;-47
2021/08/24 15:35:05;;;;;;;7.27;3.83;;;23.10;62.70;;;;;;5034938;28;20905;-43
2021/08/24 15:37:32;;;;;;;7.67;3.70;;;23.10;63.00;;;;;;5035437;28;20460;-43
2021/08/24 15:39:59;;;;;;;5.23;3.13;;;23.00;63.00;;;;;;5035103;28;20984;-43
2021/08/24 15:42:29;;;;;;;4.80;3.50;;;22.90;63.60;;;;;;5035079;28;21016;-44
2021/08/24 15:44:58;;;;;;;8.47;4.00;;;22.80;64.20;;;;;;5035356;28;20468;-43
2021/08/24 15:47:26;;;;;;;5.17;3.50;;;22.70;63.30;;;;;;5045290;28;20458;-45
2021/08/24 15:49:54;;;;;;;6.80;4.50;;;22.60;64.10;;;;;;5054412;28;20443;-42
2021/08/24 15:52:22;;;;;;;7.87;4.07;;;22.40;64.20;;;;;;5056387;28;20807;-45
2021/08/24 15:54:50;;;;;;;9.47;4.90;;;22.30;65.00;;;;;;5057686;28;20455;-44
2021/08/24 15:57:18;;;;;;;6.40;3.93;;;22.20;65.40;;;;;;5058501;28;20478;-44
2021/08/24 15:59:45;;;;;;;3.47;3.00;;;22.20;65.70;;;;;;5058791;28;20458;-44
2021/08/24 16:02:15;;;;;;;5.67;3.30;;;22.20;65.60;;;;;;5040897;28;20491;-42
2021/08/24 16:04:41;;;;;;;8.53;3.40;;;22.30;66.10;;;;;;5058664;28;20799;-41
2021/08/24 16:07:13;;;;;;;7.60;3.50;;;22.30;66.40;;;;;;5059182;28;20504;-43
2021/08/24 16:09:41;;;;;;;6.07;3.83;;;22.30;66.00;;;;;;5059480;28;20446;-41
2021/08/24 16:12:09;;;;;;;5.77;3.37;;;22.20;66.00;;;;;;5058691;28;20917;-49
2021/08/24 16:14:36;;;;;;;4.60;3.33;;;22.20;65.90;;;;;;5058528;28;20513;-42
2021/08/24 16:17:03;;;;;;;8.40;4.07;;;22.20;65.80;;;;;;5058292;28;20447;-44
2021/08/24 16:19:31;;;;;;;4.50;3.20;;;22.10;64.90;;;;;;5058101;28;20463;-46
2021/08/24 16:21:58;;;;;;;6.77;3.40;;;22.00;64.70;;;;;;5058364;28;20479;-51
2021/08/24 16:24:24;;;;;;;5.70;3.47;;;22.00;65.80;;;;;;5057910;28;20505;-44
2021/08/24 16:26:51;;;;;;;6.93;4.80;;;21.90;65.50;;;;;;5058351;28;20451;-43
2021/08/24 16:29:18;;;;;;;5.03;3.47;;;21.90;66.20;;;;;;5058467;28;20538;-43
2021/08/24 16:31:46;;;;;;;6.87;4.10;;;21.80;66.30;;;;;;5057873;28;20517;-48
2021/08/24 16:34:15;;;;;;;5.83;3.63;;;21.80;65.90;;;;;;5058539;28;20771;-49
2021/08/24 16:36:43;;;;;;;4.40;3.50;;;21.70;66.20;;;;;;5057728;28;20459;-45
2021/08/24 16:39:10;;;;;;;5.20;3.80;;;21.60;66.30;;;;;;5057827;28;20439;-46
2021/08/24 16:41:38;;;;;;;7.57;3.87;;;21.50;67.20;;;;;;5057427;28;20443;-44
2021/08/24 16:44:05;;;;;;;6.07;4.17;;;21.50;66.90;;;;;;5057600;28;20928;-44
2021/08/24 16:46:34;;;;;;;7.10;4.10;;;21.50;67.60;;;;;;5058115;28;20505;-46
2021/08/24 16:49:02;;;;;;;6.67;3.70;;;21.40;68.50;;;;;;5057887;28;20447;-46
2021/08/24 16:51:29;;;;;;;7.20;4.60;;;21.40;68.00;;;;;;5058156;28;20436;-48
2021/08/24 16:53:57;;;;;;;6.97;3.97;;;21.40;67.20;;;;;;5057497;28;20458;-49
2021/08/24 16:56:24;;;;;;;7.20;4.00;;;21.30;67.70;;;;;;5057833;28;20451;-46
2021/08/24 16:58:51;;;;;;;4.87;3.40;;;21.20;67.70;;;;;;5057700;28;20447;-45
2021/08/24 17:01:18;;;;;;;7.40;4.40;;;21.20;67.70;;;;;;5057811;28;20936;-42
2021/08/24 17:03:44;;;;;;;7.27;3.70;;;21.10;67.70;;;;;;5056883;28;20478;-43
2021/08/24 17:06:11;;;;;;;9.93;4.63;;;21.10;68.50;;;;;;5057674;28;20477;-44
2021/08/24 17:08:38;;;;;;;8.90;4.90;;;21.10;69.20;;;;;;5057788;28;20752;-45
2021/08/24 17:11:06;;;;;;;5.80;4.47;;;21.00;69.30;;;;;;5058072;28;20521;-45
2021/08/24 17:13:33;;;;;;;5.60;3.77;;;20.90;69.80;;;;;;5057749;28;20439;-45
2021/08/24 17:15:59;;;;;;;7.07;3.53;;;20.90;69.50;;;;;;5078358;22;20869;-49
2021/08/24 17:18:26;;;;;;;4.10;3.20;;;20.80;69.50;;;;;;5066838;22;20967;-45
2021/08/24 17:20:54;;;;;;;5.97;3.80;;;20.80;70.60;;;;;;5057328;28;20454;-50
2021/08/24 17:23:23;;;;;;;7.17;4.03;;;20.70;70.70;;;;;;5056863;28;20489;-50
2021/08/24 17:25:51;;;;;;;5.30;3.40;;;20.70;71.60;;;;;;5057761;28;20431;-48
2021/08/24 17:28:22;;;;;;;8.73;4.17;;;20.60;71.80;;;;;;5057287;28;20447;-45
2021/08/24 17:30:49;;;;;;;12.47;3.70;;;20.60;72.00;;;;;;5057515;28;20957;-45
2021/08/24 17:33:17;;;;;;;5.80;3.47;;;20.50;71.80;;;;;;5056863;28;20508;-47
2021/08/24 17:35:44;;;;;;;6.80;3.43;;;20.50;72.20;;;;;;5057442;28;20521;-46
2021/08/24 17:38:11;;;;;;;4.50;3.13;;;20.40;72.60;;;;;;5057097;28;20451;-46
2021/08/24 17:40:38;;;;;;;6.60;3.20;;;20.40;72.60;;;;;;5057062;28;20770;-45
2021/08/24 17:43:08;;;;;;;4.63;3.20;;;20.40;73.20;;;;;;5056919;28;20829;-45
2021/08/24 17:45:39;;;;;;;4.60;3.30;;;20.30;73.20;;;;;;5057434;28;20451;-43
2021/08/24 17:48:11;;;;;;;13.03;7.33;;;20.20;73.80;;;;;;5057425;28;20451;-43
2021/08/24 17:50:43;;;;;;;8.23;5.20;;;20.20;73.90;;;;;;5057488;28;20470;-42
2021/08/24 17:53:10;;;;;;;6.87;3.70;;;20.20;74.80;;;;;;5057155;28;20454;-43
2021/08/24 17:55:37;;;;;;;9.63;4.33;;;20.10;74.70;;;;;;5056947;28;20440;-49
2021/08/24 17:58:04;;;;;;;8.40;3.83;;;20.10;75.50;;;;;;5051042;28;20439;-42
2021/08/24 18:00:31;;;;;;;5.50;2.73;;;20.00;76.00;;;;;;5049191;28;20447;-43
2021/08/24 18:02:59;;;;;;;6.47;3.90;;;20.00;76.50;;;;;;5040676;28;20480;-48
2021/08/24 18:05:31;;;;;;;10.70;4.47;;;19.90;76.20;;;;;;5044175;28;20448;-44
2021/08/24 18:07:58;;;;;;;6.73;3.00;;;19.90;77.00;;;;;;5057559;28;20530;-44
2021/08/24 18:10:25;;;;;;;6.30;3.40;;;19.80;76.80;;;;;;5043975;28;20487;-43
2021/08/24 18:12:52;;;;;;;3.63;3.10;;;19.80;77.70;;;;;;5047588;28;20428;-47
2021/08/24 18:15:27;;;;;;;5.47;3.70;;;19.70;77.80;;;;;;5038772;28;20982;-47
2021/08/24 18:17:55;;;;;;;7.60;4.20;;;19.60;78.50;;;;;;5037317;28;20563;-43
2021/08/24 18:20:24;;;;;;;8.97;4.27;;;19.60;79.00;;;;;;5035064;28;20448;-44
2021/08/24 18:22:51;;;;;;;5.67;3.47;;;19.50;79.90;;;;;;5036533;28;21044;-42
2021/08/24 18:25:20;;;;;;;6.27;3.87;;;19.40;80.50;;;;;;5037411;28;20828;-44
2021/08/24 18:27:47;;;;;;;5.13;4.03;;;19.40;81.40;;;;;;5043858;28;20466;-44
2021/08/24 18:30:14;;;;;;;9.37;4.40;;;19.30;82.30;;;;;;5055360;28;20962;-45
2021/08/24 18:32:42;;;;;;;5.80;3.93;;;19.30;83.20;;;;;;5054676;28;20533;-42
2021/08/24 18:35:18;;;;;;;8.60;3.40;;;19.20;83.50;;;;;;5054101;28;20474;-45
2021/08/24 18:37:46;;;;;;;7.10;3.33;;;19.20;84.40;;;;;;5054672;28;20509;-45
2021/08/24 18:40:13;;;;;;;8.27;4.10;;;19.10;85.70;;;;;;5053403;28;20443;-44
2021/08/24 18:42:40;;;;;;;7.80;4.13;;;19.10;87.10;;;;;;5052415;28;20491;-48
2021/08/24 18:45:12;;;;;;;4.97;3.40;;;19.10;88.70;;;;;;5054771;28;20447;-43
2021/08/24 18:47:41;;;;;;;8.23;4.90;;;19.10;89.50;;;;;;5054156;28;20473;-45
2021/08/24 18:50:09;;;;;;;21.50;14.03;;;19.00;90.20;;;;;;5054147;28;20970;-44
2021/08/24 18:52:36;;;;;;;7.83;4.87;;;19.00;90.50;;;;;;5054365;28;20991;-44
2021/08/24 18:55:05;;;;;;;7.57;4.10;;;18.90;91.10;;;;;;5054172;28;20478;-45
2021/08/24 18:57:32;;;;;;;4.70;3.10;;;18.90;91.90;;;;;;5054519;28;20509;-42
2021/08/24 18:59:58;;;;;;;9.17;5.53;;;18.90;92.70;;;;;;5053904;28;20517;-46
2021/08/24 19:02:25;;;;;;;8.20;3.97;;;18.80;93.60;;;;;;5054163;28;20493;-43
2021/08/24 19:04:52;;;;;;;6.93;4.00;;;18.80;93.60;;;;;;5054082;28;20450;-47
2021/08/24 19:07:19;;;;;;;5.73;3.93;;;18.70;94.30;;;;;;5055927;28;20439;-43
2021/08/24 19:09:46;;;;;;;4.70;3.73;;;18.70;94.70;;;;;;5056774;28;20978;-47
2021/08/24 19:12:14;;;;;;;7.50;3.73;;;18.70;95.50;;;;;;5056538;28;20456;-44
2021/08/24 19:14:40;;;;;;;7.57;3.60;;;18.60;96.20;;;;;;5056449;28;20459;-45
2021/08/24 19:17:08;;;;;;;11.80;8.90;;;18.60;96.40;;;;;;5054673;28;20455;-43
2021/08/24 19:19:37;;;;;;;10.07;4.90;;;18.60;97.40;;;;;;5053833;28;20792;-44
2021/08/24 19:22:04;;;;;;;8.03;5.53;;;18.50;97.80;;;;;;5054098;28;20510;-43
2021/08/24 19:24:33;;;;;;;7.73;6.43;;;18.40;98.50;;;;;;5046006;28;20540;-43
2021/08/24 19:26:59;;;;;;;5.33;3.10;;;18.40;99.40;;;;;;5057492;28;20457;-43
2021/08/24 19:29:29;;;;;;;4.87;3.67;;;18.40;99.90;;;;;;5057920;28;20908;-43
2021/08/24 19:31:56;;;;;;;6.60;4.20;;;18.30;99.90;;;;;;5058214;28;20457;-42
2021/08/24 19:34:25;;;;;;;5.63;3.10;;;18.30;99.90;;;;;;5058012;28;20451;-42